createdAt,value
2022-08-04T00:00:14.027Z,99.90
2022-08-04T00:02:49.833Z,99.90
2022-08-04T00:05:22.492Z,99.90
2022-08-04T00:08:01.144Z,99.90
2022-08-04T00:10:29.195Z,99.90
2022-08-04T00:12:58.797Z,99.90
2022-08-04T00:15:27.192Z,99.90
2022-08-04T00:18:04.709Z,99.90
2022-08-04T00:20:35.097Z,99.90
2022-08-04T00:23:03.218Z,99.90
2022-08-04T00:25:30.635Z,99.90
2022-08-04T00:28:02.623Z,99.90
2022-08-04T00:30:29.829Z,99.90
2022-08-04T00:32:58.465Z,99.90
2022-08-04T00:35:25.709Z,99.90
2022-08-04T00:37:53.944Z,99.90
2022-08-04T00:40:36.339Z,99.90
2022-08-04T00:43:21.239Z,99.90
2022-08-04T00:46:17.472Z,99.90
2022-08-04T00:48:59.343Z,99.90
2022-08-04T00:51:46.968Z,99.90
2022-08-04T00:54:48.130Z,99.90
2022-08-04T00:57:36.624Z,99.90
2022-08-04T01:00:10.566Z,99.90
2022-08-04T01:02:54.866Z,99.90
2022-08-04T01:05:26.844Z,99.90
2022-08-04T01:08:05.980Z,99.90
2022-08-04T01:11:11.809Z,99.90
2022-08-04T01:14:05.122Z,99.90
2022-08-04T01:16:35.124Z,99.90
2022-08-04T01:19:41.762Z,99.90
2022-08-04T01:22:29.106Z,99.90
2022-08-04T01:25:24.149Z,99.90
2022-08-04T01:28:13.250Z,99.90
2022-08-04T01:30:43.011Z,99.90
2022-08-04T01:33:14.590Z,99.90
2022-08-04T01:36:13.764Z,99.90
2022-08-04T01:38:43.460Z,99.90
2022-08-04T01:41:14.817Z,99.90
2022-08-04T01:43:44.255Z,99.90
2022-08-04T01:46:14.170Z,99.90
2022-08-04T01:48:44.488Z,99.90
2022-08-04T01:51:11.617Z,99.90
2022-08-04T01:53:41.416Z,99.90
2022-08-04T01:56:11.349Z,99.90
2022-08-04T01:58:39.740Z,99.90
2022-08-04T02:01:09.598Z,99.90
2022-08-04T02:04:18.439Z,99.90
2022-08-04T02:06:32.803Z,99.90
2022-08-04T02:09:31.279Z,99.90
2022-08-04T02:12:26.370Z,99.90
2022-08-04T02:15:11.865Z,99.90
2022-08-04T02:17:59.609Z,99.90
2022-08-04T02:20:37.677Z,99.90
2022-08-04T02:23:29.000Z,99.90
2022-08-04T02:26:02.508Z,99.90
2022-08-04T02:28:44.941Z,99.90
2022-08-04T02:31:28.844Z,99.90
2022-08-04T02:34:06.266Z,99.90
2022-08-04T02:36:52.864Z,99.90
2022-08-04T02:39:21.916Z,99.90
2022-08-04T02:41:54.620Z,99.90
2022-08-04T02:44:23.256Z,99.90
2022-08-04T02:46:54.806Z,99.90
2022-08-04T02:49:23.280Z,99.90
2022-08-04T02:51:55.252Z,99.90
2022-08-04T02:54:39.992Z,99.90
2022-08-04T02:57:11.969Z,99.90
2022-08-04T02:59:47.830Z,99.90
2022-08-04T03:02:17.133Z,99.90
2022-08-04T03:04:44.015Z,99.90
2022-08-04T03:07:35.209Z,99.90
2022-08-04T03:10:21.442Z,99.90
2022-08-04T03:12:59.004Z,99.90
2022-08-04T03:15:48.424Z,99.90
2022-08-04T03:18:24.032Z,99.90
2022-08-04T03:21:20.624Z,99.90
2022-08-04T03:24:05.619Z,99.90
2022-08-04T03:27:02.949Z,99.90
2022-08-04T03:29:35.894Z,99.90
2022-08-04T03:32:28.239Z,99.90
2022-08-04T03:35:22.950Z,99.90
2022-08-04T03:38:08.512Z,99.90
2022-08-04T03:40:38.477Z,99.90
2022-08-04T03:43:08.041Z,99.90
2022-08-04T03:45:44.008Z,99.90
2022-08-04T03:48:20.869Z,99.90
2022-08-04T03:51:34.909Z,99.90
2022-08-04T03:54:15.302Z,99.90
2022-08-04T03:57:05.543Z,99.90
2022-08-04T03:59:53.689Z,99.90
2022-08-04T04:02:54.613Z,99.90
2022-08-04T04:05:55.982Z,99.90
2022-08-04T04:08:41.477Z,99.90
2022-08-04T04:11:57.231Z,99.90
2022-08-04T04:14:46.152Z,99.90
2022-08-04T04:18:03.206Z,99.90
2022-08-04T04:20:30.096Z,99.90
2022-08-04T04:23:01.573Z,99.90
2022-08-04T04:25:55.363Z,99.90
2022-08-04T04:28:50.223Z,99.90
2022-08-04T04:31:50.168Z,99.90
2022-08-04T04:34:25.878Z,99.90
2022-08-04T04:37:01.498Z,99.90
2022-08-04T04:39:52.078Z,99.90
2022-08-04T04:42:27.973Z,99.90
2022-08-04T04:45:09.365Z,99.90
2022-08-04T04:48:07.685Z,99.90
2022-08-04T04:50:37.320Z,99.90
2022-08-04T04:53:29.940Z,99.90
2022-08-04T04:56:07.124Z,99.90
2022-08-04T04:58:35.866Z,99.90
2022-08-04T05:01:29.615Z,99.90
2022-08-04T05:04:17.112Z,99.90
2022-08-04T05:07:27.941Z,99.90
2022-08-04T05:10:22.483Z,99.90
2022-08-04T05:14:38.679Z,99.90
2022-08-04T05:16:25.953Z,99.90
2022-08-04T05:19:10.405Z,99.90
2022-08-04T05:21:44.092Z,99.90
2022-08-04T05:24:14.142Z,99.90
2022-08-04T05:26:46.073Z,99.90
2022-08-04T05:29:22.179Z,99.90
2022-08-04T05:32:02.961Z,99.90
2022-08-04T05:34:35.680Z,99.90
2022-08-04T05:37:17.918Z,99.90
2022-08-04T05:39:49.132Z,99.90
2022-08-04T05:42:17.024Z,99.90
2022-08-04T05:44:50.404Z,99.90
2022-08-04T05:47:20.504Z,99.90
2022-08-04T05:49:55.562Z,99.90
2022-08-04T05:52:30.622Z,99.90
2022-08-04T05:54:59.543Z,99.90
2022-08-04T05:57:26.963Z,99.90
2022-08-04T05:59:56.775Z,99.90
2022-08-04T06:02:24.581Z,99.90
2022-08-04T06:04:53.351Z,99.90
2022-08-04T06:07:20.800Z,99.90
2022-08-04T06:09:48.223Z,99.90
2022-08-04T06:12:19.408Z,99.90
2022-08-04T06:14:49.917Z,99.90
2022-08-04T06:18:33.024Z,99.90
2022-08-04T06:20:19.985Z,99.90
2022-08-04T06:22:54.052Z,99.90
2022-08-04T06:25:25.732Z,99.90
2022-08-04T06:27:53.365Z,99.90
2022-08-04T06:30:26.291Z,99.90
2022-08-04T06:33:03.946Z,99.90
2022-08-04T06:35:32.841Z,99.90
2022-08-04T06:38:01.780Z,99.90
2022-08-04T06:40:33.371Z,99.90
2022-08-04T06:43:06.607Z,99.90
2022-08-04T06:45:39.913Z,99.90
2022-08-04T06:48:07.949Z,99.90
2022-08-04T06:51:24.795Z,99.90
2022-08-04T06:53:26.047Z,99.90
2022-08-04T06:55:53.940Z,99.90
2022-08-04T06:58:22.064Z,99.90
2022-08-04T07:00:50.867Z,99.90
2022-08-04T07:03:19.249Z,99.90
2022-08-04T07:05:51.277Z,99.90
2022-08-04T07:08:19.245Z,99.90
2022-08-04T07:10:46.570Z,99.90
2022-08-04T07:13:14.475Z,99.90
2022-08-04T07:15:44.234Z,99.90
2022-08-04T07:18:11.337Z,99.90
2022-08-04T07:20:42.273Z,99.90
2022-08-04T07:23:12.070Z,99.90
2022-08-04T07:25:58.932Z,99.90
2022-08-04T07:28:28.534Z,99.90
2022-08-04T07:30:57.527Z,99.90
2022-08-04T07:33:25.883Z,99.90
2022-08-04T07:36:08.381Z,99.90
2022-08-04T07:38:48.481Z,99.90
2022-08-04T07:41:40.381Z,99.90
2022-08-04T07:44:08.461Z,99.90
2022-08-04T07:46:37.115Z,99.90
2022-08-04T07:49:05.538Z,99.90
2022-08-04T07:51:35.436Z,99.90
2022-08-04T07:54:05.094Z,99.90
2022-08-04T07:56:33.908Z,99.90
2022-08-04T07:59:01.477Z,99.90
2022-08-04T08:01:29.132Z,99.90
2022-08-04T08:03:57.776Z,99.90
2022-08-04T08:06:34.036Z,99.90
2022-08-04T08:09:13.126Z,99.90
2022-08-04T08:12:37.065Z,99.90
2022-08-04T08:14:35.585Z,99.90
2022-08-04T08:17:03.585Z,99.90
2022-08-04T08:19:34.931Z,99.90
2022-08-04T08:22:02.303Z,99.90
2022-08-04T08:24:36.164Z,99.90
2022-08-04T08:27:07.214Z,99.90
2022-08-04T08:29:35.462Z,99.90
2022-08-04T08:32:08.258Z,99.90
2022-08-04T08:34:36.352Z,99.90
2022-08-04T08:37:24.488Z,99.90
2022-08-04T08:40:18.249Z,99.90
2022-08-04T08:44:04.670Z,99.90
2022-08-04T08:46:56.423Z,99.90
2022-08-04T08:50:02.101Z,99.90
2022-08-04T08:52:57.399Z,99.90
2022-08-04T08:56:06.595Z,99.90
2022-08-04T08:59:15.218Z,99.90
2022-08-04T09:02:20.047Z,99.90
2022-08-04T09:05:04.358Z,99.90
2022-08-04T09:08:01.924Z,99.90
2022-08-04T09:10:33.819Z,99.90
2022-08-04T09:13:16.571Z,99.90
2022-08-04T09:16:03.608Z,99.90
2022-08-04T09:18:37.067Z,99.90
2022-08-04T09:21:18.817Z,99.90
2022-08-04T09:23:57.141Z,99.90
2022-08-04T09:26:32.123Z,99.90
2022-08-04T09:29:29.652Z,99.90
2022-08-04T09:32:27.506Z,99.90
2022-08-04T09:35:16.296Z,99.90
2022-08-04T09:38:02.003Z,99.90
2022-08-04T09:40:52.416Z,99.90
2022-08-04T09:43:59.151Z,99.90
2022-08-04T09:46:37.272Z,99.90
2022-08-04T09:49:15.131Z,99.90
2022-08-04T09:51:57.261Z,99.90
2022-08-04T09:54:48.481Z,99.90
2022-08-04T09:57:41.799Z,99.90
2022-08-04T10:00:11.174Z,99.90
2022-08-04T10:02:55.155Z,99.90
2022-08-04T10:05:28.482Z,99.90
2022-08-04T10:08:16.235Z,99.90
2022-08-04T10:11:14.743Z,99.90
2022-08-04T10:13:41.583Z,99.90
2022-08-04T10:16:08.600Z,99.90
2022-08-04T10:18:54.269Z,99.90
2022-08-04T10:22:30.731Z,99.90
2022-08-04T10:26:02.540Z,99.90
2022-08-04T10:28:15.646Z,99.90
2022-08-04T10:30:52.183Z,99.90
2022-08-04T10:33:26.481Z,99.90
2022-08-04T10:36:16.261Z,99.90
2022-08-04T10:38:51.893Z,99.90
2022-08-04T10:41:35.101Z,99.90
2022-08-04T10:44:23.563Z,99.90
2022-08-04T10:46:56.213Z,99.90
2022-08-04T10:49:37.287Z,99.90
2022-08-04T10:52:20.882Z,99.90
2022-08-04T10:54:56.305Z,99.90
2022-08-04T10:57:44.259Z,99.90
2022-08-04T11:00:21.730Z,99.90
2022-08-04T11:03:08.725Z,99.90
2022-08-04T11:05:59.085Z,99.90
2022-08-04T11:08:33.413Z,99.90
2022-08-04T11:11:12.889Z,99.90
2022-08-04T11:14:10.878Z,99.90
2022-08-04T11:16:47.453Z,99.90
2022-08-04T11:19:44.825Z,99.90
2022-08-04T11:22:23.765Z,99.90
2022-08-04T11:25:07.094Z,99.90
2022-08-04T11:28:03.624Z,99.90
2022-08-04T11:30:57.513Z,99.90
2022-08-04T11:33:33.372Z,99.90
2022-08-04T11:36:21.750Z,99.90
2022-08-04T11:38:51.940Z,99.90
2022-08-04T11:41:26.780Z,99.90
2022-08-04T11:44:04.889Z,99.90
2022-08-04T11:46:45.740Z,99.90
2022-08-04T11:49:26.747Z,99.90
2022-08-04T11:51:56.437Z,99.90
2022-08-04T11:54:23.619Z,99.90
2022-08-04T11:56:51.580Z,99.90
2022-08-04T11:59:22.563Z,99.90
2022-08-04T12:02:11.259Z,99.90
2022-08-04T12:04:54.926Z,99.90
2022-08-04T12:08:03.065Z,99.90
2022-08-04T12:10:43.138Z,99.90
2022-08-04T12:13:24.677Z,99.90
2022-08-04T12:16:15.971Z,99.90
2022-08-04T12:18:57.650Z,99.90
2022-08-04T12:21:37.677Z,99.90
2022-08-04T12:24:15.898Z,99.90
2022-08-04T12:26:54.241Z,99.90
2022-08-04T12:29:24.122Z,99.80
2022-08-04T12:32:17.214Z,98.70
2022-08-04T12:35:00.771Z,97.80
2022-08-04T12:37:35.374Z,98.00
2022-08-04T12:40:28.956Z,96.90
2022-08-04T12:43:03.277Z,96.90
2022-08-04T12:45:31.403Z,96.60
2022-08-04T12:48:00.856Z,95.60
2022-08-04T12:50:28.866Z,95.20
2022-08-04T12:53:03.039Z,94.80
2022-08-04T12:55:35.488Z,92.30
2022-08-04T12:58:04.274Z,89.10
2022-08-04T13:00:41.101Z,86.30
2022-08-04T13:03:16.907Z,83.70
2022-08-04T13:05:45.730Z,77.40
2022-08-04T13:08:15.479Z,73.70
2022-08-04T13:10:48.689Z,71.80
2022-08-04T13:13:21.601Z,70.00
2022-08-04T13:16:00.486Z,66.50
2022-08-04T13:18:32.497Z,65.70
2022-08-04T13:21:50.540Z,65.40
2022-08-04T13:24:21.914Z,67.10
2022-08-04T13:27:16.127Z,69.30
2022-08-04T13:29:59.695Z,70.80
2022-08-04T13:32:31.111Z,71.00
2022-08-04T13:35:00.930Z,73.10
2022-08-04T13:37:36.635Z,72.70
2022-08-04T13:40:06.556Z,71.30
2022-08-04T13:42:36.294Z,71.60
2022-08-04T13:45:06.419Z,74.10
2022-08-04T13:47:39.986Z,74.90
2022-08-04T13:50:21.716Z,75.90
2022-08-04T13:52:54.074Z,75.00
2022-08-04T13:55:25.876Z,75.80
2022-08-04T13:58:14.423Z,77.10
2022-08-04T14:00:58.682Z,78.40
2022-08-04T14:03:53.553Z,78.90
2022-08-04T14:06:36.765Z,79.80
2022-08-04T14:09:15.093Z,78.50
2022-08-04T14:12:10.642Z,78.10
2022-08-04T14:14:44.168Z,74.60
2022-08-04T14:17:30.052Z,69.30
2022-08-04T14:20:00.195Z,66.80
2022-08-04T14:22:27.190Z,64.00
2022-08-04T14:25:04.442Z,61.60
2022-08-04T14:27:41.663Z,58.90
2022-08-04T14:30:38.367Z,58.20
2022-08-04T14:34:02.118Z,56.70
2022-08-04T14:36:04.358Z,56.70
2022-08-04T14:38:56.419Z,56.30
2022-08-04T14:41:28.413Z,56.70
2022-08-04T14:44:00.025Z,56.90
2022-08-04T14:46:36.167Z,55.60
2022-08-04T14:49:13.251Z,53.20
2022-08-04T14:51:41.867Z,51.60
2022-08-04T14:54:18.838Z,50.60
2022-08-04T14:56:57.987Z,50.30
2022-08-04T14:59:25.724Z,50.00
2022-08-04T15:02:00.380Z,49.20
2022-08-04T15:04:31.564Z,48.90
2022-08-04T15:07:00.666Z,48.00
2022-08-04T15:09:33.493Z,48.60
2022-08-04T15:12:00.563Z,48.80
2022-08-04T15:14:36.948Z,49.60
2022-08-04T15:17:11.888Z,50.60
2022-08-04T15:19:39.563Z,51.00
2022-08-04T15:22:07.368Z,52.80
2022-08-04T15:24:44.788Z,53.80
2022-08-04T15:27:21.124Z,54.40
2022-08-04T15:29:59.428Z,53.80
2022-08-04T15:32:34.643Z,53.70
2022-08-04T15:35:28.117Z,51.60
2022-08-04T15:37:59.084Z,51.80
2022-08-04T15:40:32.701Z,53.00
2022-08-04T15:43:23.600Z,54.30
2022-08-04T15:46:40.964Z,56.00
2022-08-04T15:48:40.995Z,58.10
2022-08-04T15:51:14.456Z,59.40
2022-08-04T15:54:03.712Z,59.30
2022-08-04T15:56:29.787Z,60.10
2022-08-04T15:58:57.765Z,61.90
2022-08-04T16:01:25.516Z,63.00
2022-08-04T16:04:00.010Z,63.60
2022-08-04T16:06:29.751Z,64.50
2022-08-04T16:09:02.163Z,66.70
2022-08-04T16:11:31.507Z,68.90
2022-08-04T16:14:01.626Z,70.40
2022-08-04T16:16:51.420Z,71.60
2022-08-04T16:19:34.936Z,72.40
2022-08-04T16:22:04.645Z,73.50
2022-08-04T16:24:42.532Z,73.60
2022-08-04T16:27:11.637Z,74.30
2022-08-04T16:29:41.767Z,74.10
2022-08-04T16:32:18.291Z,73.20
2022-08-04T16:35:04.333Z,71.90
2022-08-04T16:37:36.020Z,70.90
2022-08-04T16:40:34.462Z,70.20
2022-08-04T16:43:09.257Z,69.10
2022-08-04T16:45:45.642Z,69.10
2022-08-04T16:48:15.416Z,69.30
2022-08-04T16:50:57.487Z,69.70
2022-08-04T16:53:52.055Z,69.50
2022-08-04T16:56:30.080Z,69.50
2022-08-04T16:58:57.441Z,69.30
2022-08-04T17:01:33.516Z,68.90
2022-08-04T17:04:06.639Z,69.80
2022-08-04T17:06:36.999Z,69.00
2022-08-04T17:09:17.411Z,68.70
2022-08-04T17:11:45.920Z,68.50
2022-08-04T17:14:13.747Z,69.40
2022-08-04T17:16:44.068Z,69.30
2022-08-04T17:19:19.921Z,69.80
2022-08-04T17:21:53.139Z,70.30
2022-08-04T17:24:20.301Z,72.10
2022-08-04T17:26:54.487Z,73.70
2022-08-04T17:29:43.477Z,74.80
2022-08-04T17:32:22.147Z,75.50
2022-08-04T17:34:51.470Z,76.50
2022-08-04T17:37:39.102Z,77.40
2022-08-04T17:40:14.404Z,78.00
2022-08-04T17:42:45.944Z,78.90
2022-08-04T17:45:50.675Z,79.90
2022-08-04T17:48:11.104Z,80.60
2022-08-04T17:50:51.555Z,80.60
2022-08-04T17:54:02.765Z,81.50
2022-08-04T17:56:51.498Z,81.80
2022-08-04T17:59:55.884Z,83.20
2022-08-04T18:02:10.489Z,83.70
2022-08-04T18:05:07.698Z,83.90
2022-08-04T18:08:38.803Z,84.30
2022-08-04T18:10:56.217Z,85.20
2022-08-04T18:13:28.551Z,86.00
2022-08-04T18:16:14.345Z,85.20
2022-08-04T18:19:12.584Z,85.20
2022-08-04T18:21:46.959Z,85.60
2022-08-04T18:24:33.888Z,85.40
2022-08-04T18:27:03.564Z,84.70
2022-08-04T18:29:38.977Z,85.10
2022-08-04T18:32:08.898Z,85.00
2022-08-04T18:34:40.914Z,85.00
2022-08-04T18:38:03.654Z,85.40
2022-08-04T18:40:31.181Z,85.60
2022-08-04T18:42:57.636Z,86.40
2022-08-04T18:45:33.788Z,86.90
2022-08-04T18:48:03.928Z,86.90
2022-08-04T18:53:18.280Z,87.60
2022-08-04T18:55:56.575Z,86.90
2022-08-04T18:58:28.123Z,86.60
2022-08-04T19:00:56.217Z,86.60
2022-08-04T19:03:32.935Z,86.50
2022-08-04T19:06:01.481Z,86.60
2022-08-04T19:08:32.972Z,87.60
2022-08-04T19:11:29.297Z,89.30
2022-08-04T19:13:58.114Z,90.30
2022-08-04T19:16:30.071Z,91.40
2022-08-04T19:18:58.196Z,92.50
2022-08-04T19:22:00.683Z,94.10
2022-08-04T19:24:32.939Z,95.30
2022-08-04T19:27:06.869Z,96.90
2022-08-04T19:29:40.580Z,98.00
2022-08-04T19:32:14.610Z,99.90
2022-08-04T19:34:46.433Z,99.90
2022-08-04T19:37:57.492Z,99.90
2022-08-04T19:40:04.752Z,99.90
2022-08-04T19:42:32.143Z,99.90
2022-08-04T19:44:59.399Z,99.90
2022-08-04T19:48:17.906Z,99.90
2022-08-04T19:50:14.181Z,99.90
2022-08-04T19:52:51.569Z,99.90
2022-08-04T19:55:37.689Z,99.90
2022-08-04T19:58:07.395Z,99.90
2022-08-04T20:00:37.302Z,99.90
2022-08-04T20:03:11.317Z,99.90
2022-08-04T20:05:55.152Z,99.90
2022-08-04T20:08:31.937Z,99.90
2022-08-04T20:11:00.210Z,99.90
2022-08-04T20:16:30.215Z,99.90
2022-08-04T20:19:02.688Z,99.90
2022-08-04T20:21:54.314Z,99.90
2022-08-04T20:24:41.516Z,99.90
2022-08-04T20:27:11.626Z,99.90
2022-08-04T20:29:48.983Z,99.90
2022-08-04T20:32:22.466Z,99.90
2022-08-04T20:34:52.046Z,99.90
2022-08-04T20:37:23.949Z,99.90
2022-08-04T20:39:58.048Z,99.90
2022-08-04T20:42:34.070Z,99.90
2022-08-04T20:45:02.307Z,99.90
2022-08-04T20:47:35.003Z,99.90
2022-08-04T20:50:09.702Z,99.90
2022-08-04T20:52:37.852Z,99.90
2022-08-04T20:55:06.306Z,99.90
2022-08-04T20:57:47.880Z,99.90
2022-08-04T21:00:16.396Z,99.90
2022-08-04T21:02:44.548Z,99.90
2022-08-04T21:05:11.824Z,99.90
2022-08-04T21:07:41.787Z,99.90
2022-08-04T21:10:11.039Z,99.90
2022-08-04T21:12:38.068Z,99.90
2022-08-04T21:15:14.176Z,99.90
2022-08-04T21:17:59.137Z,99.90
2022-08-04T21:20:31.422Z,99.90
2022-08-04T21:23:02.123Z,99.90
2022-08-04T21:25:31.073Z,99.90
2022-08-04T21:28:03.943Z,99.90
2022-08-04T21:30:36.893Z,99.90
2022-08-04T21:33:19.452Z,99.90
2022-08-04T21:35:46.910Z,99.90
2022-08-04T21:38:17.249Z,99.90
2022-08-04T21:41:03.256Z,99.90
2022-08-04T21:43:34.449Z,99.90
2022-08-04T21:46:11.475Z,99.90
2022-08-04T21:48:39.272Z,99.90
2022-08-04T21:51:55.714Z,99.90
2022-08-04T21:54:08.673Z,99.90
2022-08-04T21:56:39.210Z,99.90
2022-08-04T21:59:14.517Z,99.90
2022-08-04T22:01:52.350Z,99.90
2022-08-04T22:04:22.158Z,99.90
2022-08-04T22:06:52.554Z,99.90
2022-08-04T22:09:21.673Z,99.90
2022-08-04T22:11:51.507Z,99.90
2022-08-04T22:14:21.831Z,99.90
2022-08-04T22:16:56.511Z,99.90
2022-08-04T22:19:39.671Z,99.90
2022-08-04T22:22:13.587Z,99.90
2022-08-04T22:24:52.085Z,99.90
2022-08-04T22:27:38.110Z,99.90
2022-08-04T22:30:13.422Z,99.90
2022-08-04T22:32:46.603Z,99.90
2022-08-04T22:35:36.107Z,99.90
2022-08-04T22:38:07.761Z,99.90
2022-08-04T22:40:50.841Z,99.90
2022-08-04T22:43:31.835Z,99.90
2022-08-04T22:46:03.874Z,99.90
2022-08-04T22:48:33.587Z,99.90
2022-08-04T22:51:02.870Z,99.90
2022-08-04T22:53:30.916Z,99.90
2022-08-04T22:56:09.890Z,99.90
2022-08-04T22:58:51.324Z,99.90
2022-08-04T23:01:19.767Z,99.90
2022-08-04T23:03:55.532Z,99.90
2022-08-04T23:06:25.658Z,99.90
2022-08-04T23:09:03.292Z,99.90
2022-08-04T23:11:35.132Z,99.90
2022-08-04T23:14:09.384Z,99.90
2022-08-04T23:16:42.160Z,99.90
2022-08-04T23:19:16.483Z,99.90
2022-08-04T23:21:47.249Z,99.90
2022-08-04T23:24:20.177Z,99.90
2022-08-04T23:26:51.039Z,99.90
2022-08-04T23:29:22.477Z,99.90
2022-08-04T23:31:59.800Z,99.90
2022-08-04T23:34:34.755Z,99.90
2022-08-04T23:37:07.415Z,99.90
2022-08-04T23:40:03.355Z,99.90
2022-08-04T23:42:38.290Z,99.90
2022-08-04T23:45:56.984Z,99.90
2022-08-04T23:48:16.032Z,99.90
2022-08-04T23:50:51.497Z,99.90
2022-08-04T23:53:22.551Z,99.90
2022-08-04T23:56:01.774Z,99.90
2022-08-04T23:58:37.915Z,99.90
